Kezdőlap
METAR-TAF:

METAR-TAF

Repülőterek :

Lleida-Alguaire

Lleida, Spanyolország

földrajzi szélesség: 41-43-40N, földrajzi hosszúság: 000-32-09E, magasság: 350 m

Jelenlegi meteorológiai megfigyelések

A jelentés 30 perccel ezelõtt készült, 20:00 UTC
Kelet-északkeleti szél 3 kt
Hőmérséklet 4°C
Páratartalom 93%
Légköri nyomás 1028 hPa
Látótávolság 10 km, vagy több
felhőtlen 1500 m magasságban, és nincs gomolyfelhõ

METAR: LEDA 192000Z AUTO 06003KT CAVOK 04/03 Q1028

Idő: 21:30 (20:30 UTC)


TAF: hiányzik

Meteorológiai megfigyelések és előrejelzések több, mint 4000 repülőtéren (METAR és TAF jelentéseket).

A térképen piros és sárga pontok jelzik az elérhető meteorológiai állomásokat.

Mozgassa az egeret a pont fölött, hogy megjelenjen az állomás neve.

Azután kattintson az időjárási megfigyelések és előrejelzések megtekintéséhez.

A térkép megváltoztatása: kattintson a fekete keresztel jelölt zöld gombra ráközelítéshez, a vonallal jelölt zöld gombra távolításhoz, vagy a zöld nyilakra a szomszédos térképek eléréséhez.


METAR-TAF: